Observations for CRANFIELD, United Kingdom (EGTC)

EGTC 241750Z 20004KT CAVOK 02/00 Q1011  
EGTC 241720Z 22004KT CAVOK 02/M00 Q1011 
EGTC 241650Z 26003KT CAVOK 03/01 Q1011  
EGTC 241620Z 27003KT CAVOK 04/01 Q1011  
EGTC 241550Z 28004KT CAVOK 05/01 Q1011  
EGTC 241520Z 29004KT CAVOK 06/02 Q1011  
EGTC 241450Z 30004KT CAVOK 07/02 Q1011  
EGTC 241420Z 28005KT CAVOK 08/02 Q1011  
EGTC 241350Z 27004KT 220V330 CAVOK 08/03 Q1011  
EGTC 241320Z 26004KT CAVOK 08/03 Q1011  
EGTC 241250Z 31003KT 250V020 CAVOK 07/02 Q1011  
EGTC 241220Z 30005KT 260V350 CAVOK 07/02 Q1011  
EGTC 241150Z 30005KT CAVOK 07/03 Q1011  
EGTC 241120Z 31005KT 260V350 CAVOK 07/03 Q1011  
EGTC 241050Z 29004KT 260V320 CAVOK 07/03 Q1011  
EGTC 241020Z 29005KT 260V320 CAVOK 06/03 Q1010